createdAt,value
2019-02-19T00:00:00.963Z,83.20
2019-02-19T00:02:28.620Z,83.30
2019-02-19T00:04:56.193Z,83.40
2019-02-19T00:07:23.779Z,83.50
2019-02-19T00:09:52.154Z,83.80
2019-02-19T00:12:19.728Z,83.80
2019-02-19T00:14:47.308Z,83.90
2019-02-19T00:17:14.928Z,84.10
2019-02-19T00:19:42.858Z,84.20
2019-02-19T00:22:10.442Z,84.40
2019-02-19T00:24:38.059Z,84.30
2019-02-19T00:27:05.655Z,84.40
2019-02-19T00:29:33.225Z,84.40
2019-02-19T00:32:00.839Z,83.80
2019-02-19T00:34:28.418Z,83.70
2019-02-19T00:36:55.999Z,84.50
2019-02-19T00:39:23.607Z,83.90
2019-02-19T00:41:51.188Z,84.00
2019-02-19T00:44:18.773Z,84.00
2019-02-19T00:46:46.773Z,84.10
2019-02-19T00:49:14.349Z,84.40
2019-02-19T00:51:42.694Z,85.00
2019-02-19T00:54:10.305Z,84.80
2019-02-19T00:56:37.891Z,85.00
2019-02-19T00:59:05.465Z,85.30
2019-02-19T01:01:33.076Z,84.70
2019-02-19T01:04:01.423Z,84.50
2019-02-19T01:06:29.010Z,84.50
2019-02-19T01:08:56.645Z,84.90
2019-02-19T01:11:24.225Z,84.90
2019-02-19T01:13:51.799Z,85.30
2019-02-19T01:16:19.421Z,85.50
2019-02-19T01:18:46.993Z,85.80
2019-02-19T01:21:14.569Z,85.20
2019-02-19T01:23:42.195Z,85.20
2019-02-19T01:26:09.786Z,85.20
2019-02-19T01:28:37.368Z,85.30
2019-02-19T01:31:05.771Z,84.40
2019-02-19T01:33:33.348Z,84.80
2019-02-19T01:36:00.948Z,85.30
2019-02-19T01:38:28.585Z,85.60
2019-02-19T01:40:56.137Z,85.80
2019-02-19T01:43:23.718Z,85.90
2019-02-19T01:45:51.336Z,86.40
2019-02-19T01:48:18.922Z,86.70
2019-02-19T01:50:46.504Z,86.80
2019-02-19T01:53:14.119Z,87.00
2019-02-19T01:55:42.472Z,86.70
2019-02-19T01:58:10.042Z,86.60
2019-02-19T02:00:37.652Z,86.80
2019-02-19T02:03:05.232Z,87.10
2019-02-19T02:05:32.808Z,87.10
2019-02-19T02:08:00.420Z,87.10
2019-02-19T02:10:27.995Z,87.10
2019-02-19T02:12:55.582Z,87.10
2019-02-19T02:15:23.229Z,87.10
2019-02-19T02:17:50.811Z,87.20
2019-02-19T02:20:18.396Z,87.40
2019-02-19T02:22:46.013Z,87.60
2019-02-19T02:25:13.593Z,88.40
2019-02-19T02:27:41.180Z,87.90
2019-02-19T02:30:08.817Z,88.10
2019-02-19T02:32:36.540Z,88.30
2019-02-19T02:35:04.874Z,88.30
2019-02-19T02:37:32.504Z,88.30
2019-02-19T02:40:00.255Z,88.30
2019-02-19T02:42:27.672Z,88.50
2019-02-19T02:44:55.277Z,88.70
2019-02-19T02:47:22.853Z,88.80
2019-02-19T02:49:50.708Z,88.90
2019-02-19T02:52:18.318Z,88.90
2019-02-19T02:54:45.894Z,88.90
2019-02-19T02:57:13.481Z,88.90
2019-02-19T02:59:41.518Z,89.00
2019-02-19T03:02:09.098Z,89.10
2019-02-19T03:04:36.693Z,89.10
2019-02-19T03:07:19.357Z,89.10
2019-02-19T03:09:46.926Z,89.00
2019-02-19T03:12:15.276Z,89.20
2019-02-19T03:14:43.160Z,89.60
2019-02-19T03:17:10.742Z,89.20
2019-02-19T03:19:39.087Z,87.60
2019-02-19T03:22:06.708Z,87.50
2019-02-19T03:24:34.293Z,87.60
2019-02-19T03:27:01.875Z,87.80
2019-02-19T03:29:29.511Z,88.00
2019-02-19T03:31:57.082Z,88.00
2019-02-19T03:34:24.659Z,88.30
2019-02-19T03:36:53.540Z,88.20
2019-02-19T03:39:21.123Z,88.70
2019-02-19T03:41:48.699Z,88.60
2019-02-19T03:44:16.314Z,88.70
2019-02-19T03:46:43.898Z,88.80
2019-02-19T03:49:11.478Z,89.10
2019-02-19T03:51:39.118Z,89.20
2019-02-19T03:54:06.697Z,89.30
2019-02-19T03:56:34.273Z,89.30
2019-02-19T03:59:02.678Z,90.10
2019-02-19T04:01:30.254Z,89.60
2019-02-19T04:03:57.837Z,89.70
2019-02-19T04:06:25.446Z,89.80
2019-02-19T04:08:53.794Z,89.90
2019-02-19T04:11:21.371Z,89.80
2019-02-19T04:13:48.993Z,89.90
2019-02-19T04:16:21.294Z,89.90
2019-02-19T04:18:44.153Z,90.00
2019-02-19T04:21:11.775Z,90.00
2019-02-19T04:23:39.373Z,90.00
2019-02-19T04:26:06.961Z,90.20
2019-02-19T04:28:34.579Z,90.00
2019-02-19T04:31:02.175Z,89.30
2019-02-19T04:33:30.531Z,89.20
2019-02-19T04:35:58.149Z,89.20
2019-02-19T04:38:25.732Z,88.60
2019-02-19T04:40:53.708Z,88.80
2019-02-19T04:43:21.336Z,88.30
2019-02-19T04:45:48.946Z,88.40
2019-02-19T04:48:16.486Z,88.10
2019-02-19T04:50:44.096Z,87.90
2019-02-19T04:53:12.464Z,87.70
2019-02-19T04:55:40.079Z,87.70
2019-02-19T04:58:07.697Z,87.90
2019-02-19T05:00:35.271Z,88.00
2019-02-19T05:03:02.857Z,88.30
2019-02-19T05:05:30.891Z,88.60
2019-02-19T05:07:58.468Z,89.00
2019-02-19T05:10:26.819Z,89.20
2019-02-19T05:12:54.445Z,89.20
2019-02-19T05:15:22.031Z,89.30
2019-02-19T05:17:49.616Z,90.10
2019-02-19T05:20:17.236Z,89.90
2019-02-19T05:22:44.846Z,90.20
2019-02-19T05:25:12.435Z,89.90
2019-02-19T05:27:40.060Z,89.00
2019-02-19T05:30:07.645Z,88.90
2019-02-19T05:32:35.234Z,88.90
2019-02-19T05:35:02.847Z,89.00
2019-02-19T05:37:30.441Z,89.50
2019-02-19T05:39:58.026Z,90.00
2019-02-19T05:42:25.640Z,90.20
2019-02-19T05:44:53.993Z,90.60
2019-02-19T05:47:21.589Z,90.50
2019-02-19T05:49:49.204Z,90.60
2019-02-19T05:52:16.798Z,90.80
2019-02-19T05:54:44.384Z,90.90
2019-02-19T05:57:12.770Z,91.10
2019-02-19T05:59:40.350Z,91.10
2019-02-19T06:02:07.938Z,91.10
2019-02-19T06:04:35.571Z,91.20
2019-02-19T06:07:03.148Z,91.20
2019-02-19T06:09:31.024Z,91.30
2019-02-19T06:11:58.664Z,91.30
2019-02-19T06:14:26.236Z,91.30
2019-02-19T06:16:58.522Z,91.30
2019-02-19T06:19:21.439Z,91.30
2019-02-19T06:21:49.025Z,91.20
2019-02-19T06:24:16.610Z,91.10
2019-02-19T06:26:44.233Z,91.00
2019-02-19T06:29:11.825Z,91.10
2019-02-19T06:31:39.406Z,91.10
2019-02-19T06:34:07.385Z,91.20
2019-02-19T06:36:34.967Z,91.20
2019-02-19T06:39:02.539Z,91.30
2019-02-19T06:41:30.151Z,91.30
2019-02-19T06:43:57.794Z,91.40
2019-02-19T06:46:25.376Z,91.50
2019-02-19T06:48:52.988Z,91.60
2019-02-19T06:51:20.565Z,91.50
2019-02-19T06:53:48.159Z,91.70
2019-02-19T06:56:15.804Z,91.80
2019-02-19T06:58:43.399Z,91.80
2019-02-19T07:01:10.978Z,91.90
2019-02-19T07:03:54.301Z,92.10
2019-02-19T07:06:22.652Z,91.70
2019-02-19T07:08:50.243Z,91.70
2019-02-19T07:11:18.636Z,92.20
2019-02-19T07:13:46.213Z,91.90
2019-02-19T07:16:13.796Z,91.70
2019-02-19T07:18:41.442Z,91.30
2019-02-19T07:21:09.026Z,91.30
2019-02-19T07:23:36.597Z,91.60
2019-02-19T07:26:04.226Z,91.20
2019-02-19T07:28:31.805Z,91.30
2019-02-19T07:30:59.411Z,91.50
2019-02-19T07:33:27.040Z,91.60
2019-02-19T07:35:54.763Z,91.70
2019-02-19T07:38:23.122Z,91.60
2019-02-19T07:40:51.804Z,91.60
2019-02-19T07:43:19.401Z,91.60
2019-02-19T07:45:46.984Z,91.70
2019-02-19T07:48:14.611Z,91.70
2019-02-19T07:50:42.957Z,91.90
2019-02-19T07:53:10.551Z,91.90
2019-02-19T07:55:39.416Z,92.10
2019-02-19T07:58:06.988Z,92.40
2019-02-19T08:00:34.575Z,91.80
2019-02-19T08:03:02.625Z,91.80
2019-02-19T08:05:30.204Z,91.80
2019-02-19T08:07:58.554Z,91.80
2019-02-19T08:10:26.201Z,91.80
2019-02-19T08:12:53.796Z,91.80
2019-02-19T08:15:21.723Z,91.90
2019-02-19T08:17:49.825Z,92.00
2019-02-19T08:20:17.402Z,92.00
2019-02-19T08:22:44.983Z,92.00
2019-02-19T08:25:12.641Z,92.20
2019-02-19T08:27:40.223Z,91.80
2019-02-19T08:30:07.805Z,92.10
2019-02-19T08:32:35.450Z,91.80
2019-02-19T08:35:03.044Z,91.70
2019-02-19T08:37:30.623Z,91.70
2019-02-19T08:39:58.584Z,91.70
2019-02-19T08:42:26.186Z,91.70
2019-02-19T08:44:53.773Z,91.80
2019-02-19T08:47:22.190Z,91.80
2019-02-19T08:49:49.767Z,91.80
2019-02-19T08:52:18.781Z,92.30
2019-02-19T08:54:45.744Z,92.00
2019-02-19T08:57:13.323Z,91.70
2019-02-19T08:59:40.903Z,91.60
2019-02-19T09:02:09.024Z,91.50
2019-02-19T09:04:36.599Z,91.50
2019-02-19T09:07:04.185Z,91.50
2019-02-19T09:09:31.808Z,91.50
2019-02-19T09:12:00.174Z,91.80
2019-02-19T09:14:27.756Z,91.80
2019-02-19T09:16:55.386Z,91.80
2019-02-19T09:19:22.976Z,92.00
2019-02-19T09:21:50.564Z,92.00
2019-02-19T09:24:18.687Z,92.20
2019-02-19T09:26:46.268Z,92.50
2019-02-19T09:29:14.617Z,92.10
2019-02-19T09:31:42.500Z,92.10
2019-02-19T09:34:10.868Z,92.60
2019-02-19T09:36:38.462Z,92.50
2019-02-19T09:39:06.334Z,92.10
2019-02-19T09:41:33.919Z,92.40
2019-02-19T09:44:01.510Z,92.00
2019-02-19T09:46:29.154Z,91.90
2019-02-19T09:48:56.743Z,91.90
2019-02-19T09:51:24.331Z,91.90
2019-02-19T09:53:52.732Z,91.90
2019-02-19T09:56:20.311Z,91.90
2019-02-19T09:58:47.892Z,91.90
2019-02-19T10:01:15.980Z,92.00
2019-02-19T10:03:43.578Z,92.00
2019-02-19T10:06:11.176Z,92.10
2019-02-19T10:08:39.156Z,92.10
2019-02-19T10:11:06.731Z,92.10
2019-02-19T10:13:34.312Z,92.20
2019-02-19T10:16:02.700Z,92.30
2019-02-19T10:18:31.053Z,92.50
2019-02-19T10:20:59.782Z,92.10
2019-02-19T10:23:26.298Z,92.00
2019-02-19T10:25:53.896Z,91.90
2019-02-19T10:28:21.507Z,91.70
2019-02-19T10:30:49.208Z,91.50
2019-02-19T10:33:16.806Z,91.50
2019-02-19T10:35:44.388Z,91.30
2019-02-19T10:38:12.051Z,90.90
2019-02-19T10:40:40.004Z,90.80
2019-02-19T10:43:07.588Z,90.50
2019-02-19T10:45:35.576Z,90.10
2019-02-19T10:48:03.165Z,89.80
2019-02-19T10:50:30.745Z,89.20
2019-02-19T10:52:58.447Z,89.60
2019-02-19T10:55:25.978Z,88.30
2019-02-19T10:57:53.566Z,88.30
2019-02-19T11:00:21.209Z,87.10
2019-02-19T11:02:48.764Z,86.50
2019-02-19T11:05:16.340Z,85.90
2019-02-19T11:07:43.964Z,85.30
2019-02-19T11:10:14.115Z,84.40
2019-02-19T11:12:41.697Z,82.90
2019-02-19T11:15:10.496Z,82.30
2019-02-19T11:17:38.090Z,81.50
2019-02-19T11:20:20.511Z,80.00
2019-02-19T11:22:48.429Z,78.80
2019-02-19T11:25:15.999Z,78.60
2019-02-19T11:27:43.705Z,77.60
2019-02-19T11:30:17.220Z,77.60
2019-02-19T11:32:44.810Z,77.70
2019-02-19T11:35:12.471Z,77.40
2019-02-19T11:37:40.061Z,75.90
2019-02-19T11:40:08.410Z,74.40
2019-02-19T11:42:36.137Z,75.00
2019-02-19T11:45:03.738Z,75.00
2019-02-19T11:47:31.318Z,75.20
2019-02-19T11:49:59.804Z,75.30
2019-02-19T11:52:27.416Z,74.90
2019-02-19T11:54:54.994Z,74.20
2019-02-19T11:57:22.609Z,73.70
2019-02-19T11:59:50.981Z,73.10
2019-02-19T12:02:19.324Z,72.60
2019-02-19T12:04:46.981Z,72.60
2019-02-19T12:07:14.953Z,71.80
2019-02-19T12:09:42.537Z,70.30
2019-02-19T12:12:10.222Z,70.10
2019-02-19T12:14:38.572Z,69.70
2019-02-19T12:17:06.167Z,69.70
2019-02-19T12:19:34.575Z,68.50
2019-02-19T12:22:02.153Z,68.50
2019-02-19T12:24:29.731Z,68.10
2019-02-19T12:26:58.230Z,68.10
2019-02-19T12:29:25.816Z,67.50
2019-02-19T12:31:53.402Z,67.80
2019-02-19T12:34:22.118Z,68.40
2019-02-19T12:36:49.702Z,69.00
2019-02-19T12:39:17.280Z,68.60
2019-02-19T12:41:44.906Z,68.30
2019-02-19T12:44:12.546Z,68.10
2019-02-19T12:46:40.119Z,68.30
2019-02-19T12:49:07.745Z,68.90
2019-02-19T12:51:36.566Z,69.30
2019-02-19T12:54:04.178Z,69.00
2019-02-19T12:56:31.828Z,68.50
2019-02-19T12:58:59.412Z,67.70
2019-02-19T13:01:27.777Z,66.40
2019-02-19T13:03:55.941Z,66.30
2019-02-19T13:06:23.519Z,65.70
2019-02-19T13:08:51.865Z,65.70
2019-02-19T13:11:19.499Z,65.60
2019-02-19T13:13:47.095Z,65.50
2019-02-19T13:16:14.671Z,65.40
2019-02-19T13:18:42.298Z,65.20
2019-02-19T13:21:09.888Z,65.20
2019-02-19T13:23:37.474Z,63.20
2019-02-19T13:26:05.891Z,62.60
2019-02-19T13:28:33.468Z,62.60
2019-02-19T13:31:01.043Z,62.60
2019-02-19T13:33:28.667Z,62.70
2019-02-19T13:35:56.257Z,63.10
2019-02-19T13:38:23.838Z,63.30
2019-02-19T13:40:51.502Z,63.30
2019-02-19T13:43:19.079Z,63.60
2019-02-19T13:45:46.664Z,63.20
2019-02-19T13:48:15.063Z,63.20
2019-02-19T13:50:42.956Z,63.20
2019-02-19T13:53:14.151Z,62.70
2019-02-19T13:55:42.920Z,62.60
2019-02-19T13:58:10.494Z,62.50
2019-02-19T14:00:40.849Z,61.50
2019-02-19T14:03:08.472Z,61.10
2019-02-19T14:05:36.047Z,61.20
2019-02-19T14:08:04.393Z,62.10
2019-02-19T14:10:32.939Z,61.50
2019-02-19T14:13:00.497Z,61.50
2019-02-19T14:15:44.100Z,60.70
2019-02-19T14:18:11.682Z,60.80
2019-02-19T14:20:39.258Z,61.00
2019-02-19T14:23:09.630Z,61.00
2019-02-19T14:25:51.975Z,60.70
2019-02-19T14:28:22.987Z,59.90
2019-02-19T14:30:56.279Z,59.90
2019-02-19T14:33:29.802Z,59.30
2019-02-19T14:35:58.157Z,59.00
2019-02-19T14:38:43.944Z,59.00
2019-02-19T14:41:14.101Z,58.70
2019-02-19T14:43:47.713Z,58.10
2019-02-19T14:46:33.213Z,58.30
2019-02-19T14:49:18.794Z,58.70
2019-02-19T14:51:55.392Z,59.80
2019-02-19T14:54:26.101Z,59.80
2019-02-19T14:56:53.692Z,60.10
2019-02-19T14:59:23.895Z,60.10
2019-02-19T15:01:51.522Z,60.10
2019-02-19T15:04:21.920Z,60.00
2019-02-19T15:06:52.177Z,60.00
2019-02-19T15:09:37.847Z,59.90
2019-02-19T15:12:17.486Z,59.80
2019-02-19T15:14:53.796Z,59.40
2019-02-19T15:17:33.276Z,59.10
2019-02-19T15:20:00.902Z,58.70
2019-02-19T15:22:31.761Z,58.80
2019-02-19T15:25:11.299Z,59.00
2019-02-19T15:27:41.422Z,59.20
2019-02-19T15:30:09.030Z,59.60
2019-02-19T15:32:44.124Z,60.00
2019-02-19T15:35:30.038Z,59.90
2019-02-19T15:38:00.181Z,60.20
2019-02-19T15:40:40.464Z,60.60
2019-02-19T15:43:26.614Z,60.60
2019-02-19T15:46:09.189Z,61.00
2019-02-19T15:48:42.343Z,60.90
2019-02-19T15:51:27.845Z,60.70
2019-02-19T15:53:55.465Z,61.00
2019-02-19T15:56:25.588Z,61.00
2019-02-19T15:59:12.422Z,60.80
2019-02-19T16:01:58.576Z,61.10
2019-02-19T16:04:44.414Z,60.40
2019-02-19T16:07:14.573Z,60.70
2019-02-19T16:09:42.894Z,60.60
2019-02-19T16:12:19.466Z,60.50
2019-02-19T16:14:49.966Z,60.20
2019-02-19T16:17:35.868Z,60.30
2019-02-19T16:20:05.926Z,60.30
2019-02-19T16:22:52.924Z,60.50
2019-02-19T16:25:29.503Z,60.40
2019-02-19T16:27:57.158Z,60.40
2019-02-19T16:30:27.210Z,60.50
2019-02-19T16:32:54.793Z,60.60
2019-02-19T16:35:22.429Z,60.40
2019-02-19T16:38:07.848Z,60.20
2019-02-19T16:40:53.499Z,60.40
2019-02-19T16:43:21.902Z,61.20
2019-02-19T16:45:55.217Z,61.10
2019-02-19T16:48:31.708Z,61.50
2019-02-19T16:50:59.296Z,61.80
2019-02-19T16:53:41.823Z,61.90
2019-02-19T16:56:12.196Z,62.20
2019-02-19T16:58:45.653Z,62.40
2019-02-19T17:01:31.403Z,62.70
2019-02-19T17:04:04.692Z,62.70
2019-02-19T17:06:38.426Z,62.40
2019-02-19T17:09:09.594Z,62.30
2019-02-19T17:11:42.810Z,62.30
2019-02-19T17:14:10.397Z,61.90
2019-02-19T17:16:53.382Z,62.20
2019-02-19T17:19:23.687Z,62.60
2019-02-19T17:22:03.292Z,63.10
2019-02-19T17:24:36.852Z,63.50
2019-02-19T17:27:04.421Z,64.00
2019-02-19T17:29:32.121Z,64.40
2019-02-19T17:32:02.359Z,64.70
2019-02-19T17:34:30.726Z,65.30
2019-02-19T17:37:17.029Z,65.30
2019-02-19T17:39:47.453Z,65.10
2019-02-19T17:42:33.118Z,65.30
2019-02-19T17:45:06.418Z,65.60
2019-02-19T17:47:52.111Z,66.10
2019-02-19T17:50:38.722Z,66.30
2019-02-19T17:53:14.914Z,66.80
2019-02-19T17:55:56.603Z,67.30
2019-02-19T17:58:27.683Z,68.20
2019-02-19T18:01:13.393Z,68.20
2019-02-19T18:03:55.995Z,68.50
2019-02-19T18:06:32.467Z,68.70
2019-02-19T18:09:00.123Z,69.10
2019-02-19T18:11:46.000Z,69.40
2019-02-19T18:14:31.835Z,69.80
2019-02-19T18:17:02.154Z,70.00
2019-02-19T18:19:29.694Z,70.30
2019-02-19T18:21:57.348Z,70.60
2019-02-19T18:24:24.930Z,70.90
2019-02-19T18:26:52.504Z,71.20
2019-02-19T18:29:20.163Z,71.50
2019-02-19T18:31:47.743Z,71.70
2019-02-19T18:34:15.332Z,71.90
2019-02-19T18:36:43.324Z,72.50
2019-02-19T18:39:11.472Z,72.00
2019-02-19T18:41:40.095Z,72.50
2019-02-19T18:44:08.102Z,72.50
2019-02-19T18:46:35.685Z,72.60
2019-02-19T18:49:04.039Z,73.60
2019-02-19T18:51:32.055Z,73.60
2019-02-19T18:53:59.581Z,73.10
2019-02-19T18:56:27.162Z,73.00
2019-02-19T18:58:55.545Z,73.00
2019-02-19T19:01:23.119Z,73.00
2019-02-19T19:03:50.693Z,73.10
2019-02-19T19:06:18.421Z,73.60
2019-02-19T19:08:46.663Z,73.50
2019-02-19T19:11:14.253Z,73.50
2019-02-19T19:13:41.925Z,73.60
2019-02-19T19:16:10.281Z,74.60
2019-02-19T19:18:37.884Z,74.40
2019-02-19T19:21:07.821Z,74.70
2019-02-19T19:23:33.367Z,75.00
2019-02-19T19:26:00.953Z,75.40
2019-02-19T19:28:29.353Z,74.90
2019-02-19T19:30:56.940Z,75.50
2019-02-19T19:33:24.530Z,74.90
2019-02-19T19:35:53.447Z,75.80
2019-02-19T19:38:21.037Z,75.30
2019-02-19T19:40:48.632Z,75.40
2019-02-19T19:43:16.256Z,75.90
2019-02-19T19:45:44.609Z,76.80
2019-02-19T19:48:12.182Z,76.70
2019-02-19T19:50:40.570Z,77.50
2019-02-19T19:53:08.933Z,77.70
2019-02-19T19:55:36.512Z,77.70
2019-02-19T19:58:05.488Z,78.40
2019-02-19T20:00:33.162Z,78.40
2019-02-19T20:03:00.674Z,78.60
2019-02-19T20:05:28.299Z,78.80
2019-02-19T20:07:55.878Z,79.00
2019-02-19T20:10:23.462Z,79.30
2019-02-19T20:12:51.666Z,79.30
2019-02-19T20:15:19.258Z,79.60
2019-02-19T20:17:47.181Z,79.90
2019-02-19T20:20:14.785Z,80.30
2019-02-19T20:22:42.378Z,80.60
2019-02-19T20:25:09.970Z,80.90
2019-02-19T20:27:37.631Z,81.00
2019-02-19T20:30:07.687Z,81.10
2019-02-19T20:32:35.268Z,81.40
2019-02-19T20:35:02.961Z,82.40
2019-02-19T20:37:30.519Z,81.70
2019-02-19T20:39:58.092Z,81.60
2019-02-19T20:42:25.714Z,81.70
2019-02-19T20:44:53.617Z,81.90
2019-02-19T20:47:21.194Z,82.00
2019-02-19T20:49:48.823Z,82.20
2019-02-19T20:52:16.401Z,82.30
2019-02-19T20:54:44.037Z,82.50
2019-02-19T20:57:13.367Z,83.70
2019-02-19T20:59:40.947Z,82.90
2019-02-19T21:02:08.532Z,83.10
2019-02-19T21:04:36.160Z,83.20
2019-02-19T21:07:03.747Z,84.10
2019-02-19T21:09:31.323Z,83.50
2019-02-19T21:12:00.195Z,84.70
2019-02-19T21:14:27.769Z,83.90
2019-02-19T21:16:56.115Z,83.90
2019-02-19T21:19:23.796Z,83.50
2019-02-19T21:21:51.382Z,83.00
2019-02-19T21:24:18.959Z,83.00
2019-02-19T21:26:46.572Z,83.10
2019-02-19T21:29:14.157Z,83.30
2019-02-19T21:31:41.729Z,83.50
2019-02-19T21:34:10.397Z,83.70
2019-02-19T21:36:37.973Z,83.70
2019-02-19T21:39:06.327Z,84.20
2019-02-19T21:41:33.970Z,84.20
2019-02-19T21:44:01.555Z,84.60
2019-02-19T21:46:29.706Z,85.40
2019-02-19T21:48:57.315Z,84.80
2019-02-19T21:51:25.662Z,85.50
2019-02-19T21:53:53.252Z,85.50
2019-02-19T21:56:21.184Z,85.40
2019-02-19T21:58:48.761Z,84.50
2019-02-19T22:01:16.344Z,83.80
2019-02-19T22:03:44.021Z,83.10
2019-02-19T22:06:12.756Z,83.40
2019-02-19T22:08:40.343Z,83.40
2019-02-19T22:11:07.950Z,83.70
2019-02-19T22:13:35.564Z,84.00
2019-02-19T22:16:03.152Z,84.20
2019-02-19T22:18:30.769Z,84.60
2019-02-19T22:21:01.086Z,84.90
2019-02-19T22:23:28.680Z,85.10
2019-02-19T22:25:56.344Z,85.30
2019-02-19T22:28:24.001Z,85.60
2019-02-19T22:30:51.575Z,85.60
2019-02-19T22:33:19.218Z,85.00
2019-02-19T22:35:46.819Z,84.40
2019-02-19T22:38:14.397Z,84.40
2019-02-19T22:40:42.006Z,84.70
2019-02-19T22:43:09.599Z,85.00
2019-02-19T22:45:37.952Z,85.40
2019-02-19T22:48:05.580Z,85.40
2019-02-19T22:50:33.447Z,85.60
2019-02-19T22:53:01.034Z,85.70
2019-02-19T22:55:46.664Z,86.00
2019-02-19T22:58:15.003Z,86.70
2019-02-19T23:00:48.284Z,86.70
2019-02-19T23:03:16.372Z,86.70
2019-02-19T23:05:43.953Z,86.90
2019-02-19T23:08:11.527Z,86.90
2019-02-19T23:10:39.154Z,87.10
2019-02-19T23:13:06.731Z,87.30
2019-02-19T23:15:34.326Z,87.30
2019-02-19T23:18:01.971Z,87.40
2019-02-19T23:20:29.554Z,87.50
2019-02-19T23:22:57.139Z,87.60
2019-02-19T23:25:24.778Z,86.80
2019-02-19T23:27:52.374Z,86.60
2019-02-19T23:30:19.975Z,86.80
2019-02-19T23:32:47.564Z,86.80
2019-02-19T23:35:20.887Z,86.70
2019-02-19T23:37:48.465Z,86.10
2019-02-19T23:40:16.074Z,85.70
2019-02-19T23:42:43.657Z,86.20
2019-02-19T23:45:11.237Z,86.10
2019-02-19T23:47:38.863Z,86.20
2019-02-19T23:50:06.447Z,86.40
2019-02-19T23:52:34.018Z,86.70
2019-02-19T23:55:01.642Z,86.90
2019-02-19T23:57:29.987Z,87.70
2019-02-19T23:59:57.564Z,87.20
